Time;durP1;ratioP1;P1;durP2;ratioP2;P2;SDS_P1;SDS_P2;PMS_P1;PMS_P2;Temp;Humidity;BMP_temperature;BMP_pressure;BME280_temperature;BME280_humidity;BME280_pressure;Samples;Min_cycle;Max_cycle;Signal;HPM_P1;HPM_P2
2022/01/18 00:01:08;;;;;;;;;;;;;;;;;;6232132;23;19920;-96
2022/01/18 00:03:43;;;;;;;;;;;;;;;;;;6234336;23;19920;-96
2022/01/18 00:06:10;;;;;;;;;;;;;;;;;;6204773;23;19920;-96
2022/01/18 00:08:37;;;;;;;;;;;;;;;;;;6227580;23;19923;-95
2022/01/18 00:11:03;;;;;;;;;;;;;;;;;;6227804;23;19943;-96
2022/01/18 00:13:42;;;;;;;;;;;;;;;;;;6229825;23;19995;-96
2022/01/18 00:16:27;;;;;;;;;;;;;;;;;;6229018;23;19920;-96
2022/01/18 00:18:54;;;;;;;;;;;;;;;;;;6227215;23;19920;-96
2022/01/18 00:21:28;;;;;;;;;;;;;;;;;;6235491;23;19916;-96
2022/01/18 02:13:00;;;;;;;;;;;;;;;;;;6267873;22;19903;-96
2022/01/18 02:16:12;;;;;;;;;;;;;;;;;;6176581;22;19923;-97
2022/01/18 02:26:38;;;;;;;;;;;;;;;;;;6202354;23;19960;-96
2022/01/18 02:31:39;;;;;;;;;;;;;;;;;;6215567;23;19990;-96
2022/01/18 02:34:06;;;;;;;;;;;;;;;;;;6229164;23;19920;-90
2022/01/18 02:36:32;;;;;;;;;;;;;;;;;;6230965;23;19923;-93
2022/01/18 02:41:30;;;;;;;;;;;;;;;;;;6179915;23;19972;-95
2022/01/18 02:43:57;;;;;;;;;;;;;;;;;;6151084;23;19958;-96
2022/01/18 02:46:27;;;;;;;;;;;;;;;;;;6175652;23;19981;-96
2022/01/18 02:49:04;;;;;;;;;;;;;;;;;;6175386;23;19904;-96
2022/01/18 02:51:31;;;;;;;;;;;;;;;;;;6174660;23;19920;-94
2022/01/18 02:54:00;;;;;;;;;;;;;;;;;;6173880;23;20020;-96
2022/01/18 02:56:27;;;;;;;;;;;;;;;;;;6175561;23;19932;-96
2022/01/18 02:59:00;;;;;;;;;;;;;;;;;;6174085;23;19920;-96
2022/01/18 03:04:10;;;;;;;;;;;;;;;;;;6172973;23;19949;-96
2022/01/18 03:06:40;;;;;;;;;;;;;;;;;;6171931;23;19921;-96
2022/01/18 03:09:09;;;;;;;;;;;;;;;;;;6170725;23;19945;-96
2022/01/18 03:11:36;;;;;;;;;;;;;;;;;;6173378;23;19960;-96
2022/01/18 03:14:02;;;;;;;;;;;;;;;;;;6174389;23;19969;-94
2022/01/18 03:16:28;;;;;;;;;;;;;;;;;;6167587;23;19925;-94
2022/01/18 03:18:54;;;;;;;;;;;;;;;;;;6169031;23;19957;-94
2022/01/18 03:21:21;;;;;;;;;;;;;;;;;;6164125;23;19932;-93
2022/01/18 03:23:52;;;;;;;;;;;;;;;;;;6164100;23;19924;-95
2022/01/18 03:26:18;;;;;;;;;;;;;;;;;;6171140;23;19921;-96
2022/01/18 03:28:44;;;;;;;;;;;;;;;;;;6166320;23;19936;-95
2022/01/18 03:31:15;;;;;;;;;;;;;;;;;;6169512;23;20027;-96
2022/01/18 03:33:42;;;;;;;;;;;;;;;;;;6170976;23;19921;-96
2022/01/18 03:36:14;;;;;;;;;;;;;;;;;;6175554;23;19927;-96
2022/01/18 03:38:50;;;;;;;;;;;;;;;;;;6172496;23;19924;-95
2022/01/18 03:41:18;;;;;;;;;;;;;;;;;;6186400;23;19920;-96
2022/01/18 03:43:45;;;;;;;;;;;;;;;;;;6203657;23;19920;-96
2022/01/18 03:46:19;;;;;;;;;;;;;;;;;;6202657;23;19940;-96
2022/01/18 03:48:50;;;;;;;;;;;;;;;;;;6199742;23;19920;-96
2022/01/18 03:51:17;;;;;;;;;;;;;;;;;;6200163;23;19930;-96
2022/01/18 03:53:43;;;;;;;;;;;;;;;;;;6201242;23;19920;-95
2022/01/18 03:56:09;;;;;;;;;;;;;;;;;;6198722;23;19927;-93
2022/01/18 03:58:36;;;;;;;;;;;;;;;;;;6200579;23;19920;-95
2022/01/18 04:01:06;;;;;;;;;;;;;;;;;;6203572;23;19951;-96
2022/01/18 04:03:35;;;;;;;;;;;;;;;;;;6217746;23;19986;-96
2022/01/18 04:06:05;;;;;;;;;;;;;;;;;;6230524;23;19936;-96
2022/01/18 04:08:31;;;;;;;;;;;;;;;;;;6229666;23;19920;-95
2022/01/18 04:10:57;;;;;;;;;;;;;;;;;;6230038;23;19924;-95
2022/01/18 04:13:24;;;;;;;;;;;;;;;;;;6229732;23;19946;-93
2022/01/18 04:15:50;;;;;;;;;;;;;;;;;;6229286;23;19920;-96
2022/01/18 04:18:24;;;;;;;;;;;;;;;;;;6228949;23;19967;-94
2022/01/18 04:29:02;;;;;;;;;;;;;;;;;;6230261;23;19915;-95
2022/01/18 04:31:31;;;;;;;;;;;;;;;;;;6228736;23;19926;-92
2022/01/18 04:33:58;;;;;;;;;;;;;;;;;;6227667;23;20419;-93
2022/01/18 04:36:24;;;;;;;;;;;;;;;;;;6234403;23;19904;-95
2022/01/18 04:39:00;;;;;;;;;;;;;;;;;;6231135;23;19924;-96
2022/01/18 04:41:29;;;;;;;;;;;;;;;;;;6230867;23;19951;-94
2022/01/18 04:44:15;;;;;;;;;;;;;;;;;;6228619;23;19954;-96
2022/01/18 04:49:28;;;;;;;;;;;;;;;;;;6232476;23;19966;-96
2022/01/18 04:51:54;;;;;;;;;;;;;;;;;;6228987;23;19920;-93
2022/01/18 04:54:23;;;;;;;;;;;;;;;;;;6232535;23;19947;-96
2022/01/18 04:59:33;;;;;;;;;;;;;;;;;;6230868;23;19903;-94
2022/01/18 05:02:00;;;;;;;;;;;;;;;;;;6230200;23;19924;-96
2022/01/18 05:04:26;;;;;;;;;;;;;;;;;;6203031;23;19920;-95
2022/01/18 05:06:58;;;;;;;;;;;;;;;;;;6227743;23;19920;-92
2022/01/18 05:09:25;;;;;;;;;;;;;;;;;;6230947;23;19942;-95
2022/01/18 05:12:05;;;;;;;;;;;;;;;;;;6232017;23;19924;-97
2022/01/18 05:14:39;;;;;;;;;;;;;;;;;;6218626;22;19945;-96
2022/01/18 05:19:59;;;;;;;;;;;;;;;;;;6171578;23;19936;-93
2022/01/18 05:25:10;;;;;;;;;;;;;;;;;;6174613;23;19924;-96
2022/01/18 05:27:36;;;;;;;;;;;;;;;;;;6172276;23;19948;-95
2022/01/18 05:30:02;;;;;;;;;;;;;;;;;;6168085;23;19921;-96
2022/01/18 05:32:29;;;;;;;;;;;;;;;;;;6172686;23;19924;-94
2022/01/18 05:34:55;;;;;;;;;;;;;;;;;;6174422;23;19926;-96
2022/01/18 05:37:28;;;;;;;;;;;;;;;;;;6161447;23;19904;-95
2022/01/18 05:39:55;;;;;;;;;;;;;;;;;;6173368;23;19975;-96
2022/01/18 05:42:21;;;;;;;;;;;;;;;;;;6175802;23;19928;-96
2022/01/18 05:44:48;;;;;;;;;;;;;;;;;;6172853;23;19925;-94
2022/01/18 05:47:14;;;;;;;;;;;;;;;;;;6144642;23;19925;-94
2022/01/18 05:49:41;;;;;;;;;;;;;;;;;;6174977;23;19921;-96
2022/01/18 05:52:07;;;;;;;;;;;;;;;;;;6174199;23;19921;-96
2022/01/18 05:54:33;;;;;;;;;;;;;;;;;;6176873;23;19905;-96
2022/01/18 05:57:00;;;;;;;;;;;;;;;;;;6173633;23;19944;-96
2022/01/18 05:59:34;;;;;;;;;;;;;;;;;;6174188;23;19976;-96
2022/01/18 06:02:13;;;;;;;;;;;;;;;;;;6178741;23;19921;-96
2022/01/18 06:07:24;;;;;;;;;;;;;;;;;;6175331;23;19919;-96
2022/01/18 06:09:50;;;;;;;;;;;;;;;;;;6179190;23;19905;-96
2022/01/18 06:17:27;;;;;;;;;;;;;;;;;;6197105;23;19921;-95
2022/01/18 06:23:03;;;;;;;;;;;;;;;;;;6255442;22;19930;-96
2022/01/18 06:25:30;;;;;;;;;;;;;;;;;;6263282;23;19924;-96
2022/01/18 06:27:56;;;;;;;;;;;;;;;;;;6262612;23;19926;-96
2022/01/18 06:30:22;;;;;;;;;;;;;;;;;;6262416;23;19923;-96
2022/01/18 06:32:49;;;;;;;;;;;;;;;;;;6256473;23;19926;-96
2022/01/18 06:35:16;;;;;;;;;;;;;;;;;;6258702;23;19951;-96
2022/01/18 06:37:42;;;;;;;;;;;;;;;;;;6259857;23;19920;-96
2022/01/18 06:40:09;;;;;;;;;;;;;;;;;;6257955;23;19928;-94
2022/01/18 06:42:35;;;;;;;;;;;;;;;;;;6261001;23;19924;-96
2022/01/18 06:45:02;;;;;;;;;;;;;;;;;;6265263;23;20516;-95
2022/01/18 06:47:28;;;;;;;;;;;;;;;;;;6261481;23;19919;-96
2022/01/18 06:49:54;;;;;;;;;;;;;;;;;;6259506;23;19924;-96
2022/01/18 06:52:21;;;;;;;;;;;;;;;;;;6235006;23;19929;-96
2022/01/18 06:54:47;;;;;;;;;;;;;;;;;;6259129;23;19966;-95
2022/01/18 06:57:14;;;;;;;;;;;;;;;;;;6261512;23;19920;-96
2022/01/18 06:59:40;;;;;;;;;;;;;;;;;;6260802;23;19920;-96
2022/01/18 07:02:06;;;;;;;;;;;;;;;;;;6260809;23;19903;-95
2022/01/18 07:04:32;;;;;;;;;;;;;;;;;;6259159;23;19986;-95
2022/01/18 07:06:59;;;;;;;;;;;;;;;;;;6267222;23;19930;-96
2022/01/18 07:09:25;;;;;;;;;;;;;;;;;;6263854;23;19977;-96
2022/01/18 07:11:52;;;;;;;;;;;;;;;;;;6217023;23;19911;-96
2022/01/18 07:14:27;;;;;;;;;;;;;;;;;;6207999;23;19931;-96
2022/01/18 07:16:55;;;;;;;;;;;;;;;;;;6205183;23;19920;-96
2022/01/18 07:19:21;;;;;;;;;;;;;;;;;;6205341;23;19924;-96
2022/01/18 07:21:51;;;;;;;;;;;;;;;;;;6204173;23;19920;-96
2022/01/18 07:24:25;;;;;;;;;;;;;;;;;;6195279;23;19924;-96
2022/01/18 07:26:51;;;;;;;;;;;;;;;;;;6203156;23;19967;-95
2022/01/18 07:29:18;;;;;;;;;;;;;;;;;;6205527;23;19928;-95
2022/01/18 07:31:48;;;;;;;;;;;;;;;;;;6203699;23;19924;-96
2022/01/18 07:34:32;;;;;;;;;;;;;;;;;;6201265;23;19924;-96
2022/01/18 07:37:02;;;;;;;;;;;;;;;;;;6203574;23;19964;-96
2022/01/18 07:39:28;;;;;;;;;;;;;;;;;;6200320;23;19928;-95
2022/01/18 07:41:55;;;;;;;;;;;;;;;;;;6200362;23;19920;-96
2022/01/18 07:44:21;;;;;;;;;;;;;;;;;;6201420;23;19947;-94
2022/01/18 07:46:48;;;;;;;;;;;;;;;;;;6201662;23;19924;-95
2022/01/18 07:49:17;;;;;;;;;;;;;;;;;;6201563;23;19920;-96
2022/01/18 07:51:43;;;;;;;;;;;;;;;;;;6200450;23;19995;-95
2022/01/18 07:54:10;;;;;;;;;;;;;;;;;;6198868;23;19921;-96
2022/01/18 07:56:40;;;;;;;;;;;;;;;;;;6199960;23;19951;-96
2022/01/18 07:59:07;;;;;;;;;;;;;;;;;;6197373;23;19947;-96
2022/01/18 08:01:33;;;;;;;;;;;;;;;;;;6201254;23;19932;-96
2022/01/18 08:04:00;;;;;;;;;;;;;;;;;;6199912;23;19951;-95
2022/01/18 08:06:27;;;;;;;;;;;;;;;;;;6200141;23;19920;-96
2022/01/18 08:08:54;;;;;;;;;;;;;;;;;;6199385;23;19927;-93
2022/01/18 08:11:20;;;;;;;;;;;;;;;;;;6198632;23;19920;-94
2022/01/18 08:13:49;;;;;;;;;;;;;;;;;;6202387;23;19947;-96
2022/01/18 08:16:44;;;;;;;;;;;;;;;;;;6202280;23;19927;-95
2022/01/18 08:19:10;;;;;;;;;;;;;;;;;;6202996;23;19969;-92
2022/01/18 08:21:36;;;;;;;;;;;;;;;;;;6175539;23;19924;-96
2022/01/18 08:24:02;;;;;;;;;;;;;;;;;;6197954;23;19951;-94
2022/01/18 08:26:29;;;;;;;;;;;;;;;;;;6193642;23;19924;-93
2022/01/18 08:28:55;;;;;;;;;;;;;;;;;;6197063;23;19920;-96
2022/01/18 08:31:22;;;;;;;;;;;;;;;;;;6199006;23;19943;-96
2022/01/18 08:33:49;;;;;;;;;;;;;;;;;;6197913;23;19925;-96
2022/01/18 08:36:15;;;;;;;;;;;;;;;;;;6202992;23;19920;-95
2022/01/18 08:38:41;;;;;;;;;;;;;;;;;;6203065;23;19926;-96
2022/01/18 08:41:08;;;;;;;;;;;;;;;;;;6200900;23;19927;-96
2022/01/18 08:43:36;;;;;;;;;;;;;;;;;;6202254;23;19928;-96
2022/01/18 08:46:03;;;;;;;;;;;;;;;;;;6203339;23;19921;-94
2022/01/18 08:48:29;;;;;;;;;;;;;;;;;;6199772;23;19924;-94
2022/01/18 08:50:55;;;;;;;;;;;;;;;;;;6201396;23;19920;-96
2022/01/18 08:53:22;;;;;;;;;;;;;;;;;;6198461;23;19921;-96
2022/01/18 08:55:49;;;;;;;;;;;;;;;;;;6200001;23;19920;-95
2022/01/18 08:58:15;;;;;;;;;;;;;;;;;;6201230;23;19920;-95
2022/01/18 09:00:42;;;;;;;;;;;;;;;;;;6200366;23;19947;-94
2022/01/18 09:03:09;;;;;;;;;;;;;;;;;;6200798;23;19920;-92
2022/01/18 09:05:38;;;;;;;;;;;;;;;;;;6199048;23;19920;-94
2022/01/18 09:08:11;;;;;;;;;;;;;;;;;;6200191;23;19921;-95
2022/01/18 09:10:38;;;;;;;;;;;;;;;;;;6200326;23;19960;-95
2022/01/18 09:13:04;;;;;;;;;;;;;;;;;;6200746;23;19924;-94
2022/01/18 09:15:33;;;;;;;;;;;;;;;;;;6200111;23;19924;-96
2022/01/18 09:18:09;;;;;;;;;;;;;;;;;;6202190;23;19916;-96
2022/01/18 09:20:39;;;;;;;;;;;;;;;;;;6203611;23;19924;-95
2022/01/18 09:23:05;;;;;;;;;;;;;;;;;;6216688;23;19926;-96
2022/01/18 09:25:32;;;;;;;;;;;;;;;;;;6231562;23;19920;-96
2022/01/18 09:27:59;;;;;;;;;;;;;;;;;;6230646;23;19930;-94
2022/01/18 09:33:07;;;;;;;;;;;;;;;;;;6185230;23;19992;-96
2022/01/18 09:35:34;;;;;;;;;;;;;;;;;;6170474;23;19948;-94
2022/01/18 09:38:02;;;;;;;;;;;;;;;;;;6170914;23;19924;-95
2022/01/18 09:40:33;;;;;;;;;;;;;;;;;;6176263;23;19927;-96
2022/01/18 09:43:01;;;;;;;;;;;;;;;;;;6202851;23;19927;-93
2022/01/18 09:45:27;;;;;;;;;;;;;;;;;;6200604;23;19920;-96
2022/01/18 09:47:53;;;;;;;;;;;;;;;;;;6203142;23;19948;-96
2022/01/18 09:50:27;;;;;;;;;;;;;;;;;;6198675;23;19944;-93
2022/01/18 09:53:00;;;;;;;;;;;;;;;;;;6197978;23;19988;-95
2022/01/18 09:55:26;;;;;;;;;;;;;;;;;;6198080;23;19944;-95
2022/01/18 09:57:53;;;;;;;;;;;;;;;;;;6201615;23;19944;-96
2022/01/18 10:00:19;;;;;;;;;;;;;;;;;;6201653;23;19948;-96
2022/01/18 10:02:45;;;;;;;;;;;;;;;;;;6198999;23;19936;-96
2022/01/18 10:05:12;;;;;;;;;;;;;;;;;;6197272;23;19944;-94
2022/01/18 10:07:38;;;;;;;;;;;;;;;;;;6198529;23;19920;-95
2022/01/18 10:10:04;;;;;;;;;;;;;;;;;;6196813;23;19920;-96
2022/01/18 10:12:31;;;;;;;;;;;;;;;;;;6196423;23;19920;-91
2022/01/18 10:14:57;;;;;;;;;;;;;;;;;;6198501;23;19916;-94
2022/01/18 10:17:23;;;;;;;;;;;;;;;;;;6196836;23;19924;-95
2022/01/18 10:19:51;;;;;;;;;;;;;;;;;;6195303;23;20381;-96
2022/01/18 10:22:18;;;;;;;;;;;;;;;;;;6199939;23;19964;-93
2022/01/18 10:24:46;;;;;;;;;;;;;;;;;;6201079;23;19924;-96
2022/01/18 10:27:13;;;;;;;;;;;;;;;;;;6200428;23;19931;-94
2022/01/18 10:29:40;;;;;;;;;;;;;;;;;;6198237;23;19928;-92
2022/01/18 10:32:15;;;;;;;;;;;;;;;;;;6198994;23;19924;-96
2022/01/18 10:35:04;;;;;;;;;;;;;;;;;;6198824;23;20048;-96
2022/01/18 10:37:32;;;;;;;;;;;;;;;;;;6199878;23;19927;-96
2022/01/18 10:39:58;;;;;;;;;;;;;;;;;;6199264;23;19991;-95
2022/01/18 10:42:29;;;;;;;;;;;;;;;;;;6198813;23;19921;-95
2022/01/18 10:44:56;;;;;;;;;;;;;;;;;;6198883;23;19967;-95
2022/01/18 10:50:04;;;;;;;;;;;;;;;;;;6262862;22;19926;-96
2022/01/18 10:52:30;;;;;;;;;;;;;;;;;;6268232;22;19904;-96
2022/01/18 10:55:00;;;;;;;;;;;;;;;;;;6243501;22;19932;-95
2022/01/18 10:57:26;;;;;;;;;;;;;;;;;;6198635;23;19920;-96
2022/01/18 10:59:55;;;;;;;;;;;;;;;;;;6202008;23;19927;-96
2022/01/18 11:02:21;;;;;;;;;;;;;;;;;;6201770;23;19939;-96
2022/01/18 11:04:47;;;;;;;;;;;;;;;;;;6210613;23;19920;-96
2022/01/18 11:07:16;;;;;;;;;;;;;;;;;;6265080;23;19923;-95
2022/01/18 11:09:53;;;;;;;;;;;;;;;;;;6261217;23;19927;-96
2022/01/18 11:14:47;;;;;;;;;;;;;;;;;;6200090;23;19964;-94
2022/01/18 11:17:20;;;;;;;;;;;;;;;;;;6200097;23;19928;-91
2022/01/18 11:19:47;;;;;;;;;;;;;;;;;;6202732;23;20514;-96
2022/01/18 11:22:13;;;;;;;;;;;;;;;;;;6201022;23;19968;-94
2022/01/18 11:24:40;;;;;;;;;;;;;;;;;;6200506;23;19991;-96
2022/01/18 11:27:10;;;;;;;;;;;;;;;;;;6204871;23;19924;-96
2022/01/18 11:29:36;;;;;;;;;;;;;;;;;;6204890;23;19927;-92
2022/01/18 11:32:02;;;;;;;;;;;;;;;;;;6204219;23;20417;-92
2022/01/18 11:34:29;;;;;;;;;;;;;;;;;;6205205;23;19920;-94
2022/01/18 11:36:55;;;;;;;;;;;;;;;;;;6202467;23;19931;-96
2022/01/18 11:41:50;;;;;;;;;;;;;;;;;;6175310;23;19973;-95
2022/01/18 11:44:17;;;;;;;;;;;;;;;;;;6173699;23;19948;-96
2022/01/18 11:46:43;;;;;;;;;;;;;;;;;;6173979;23;19931;-95
2022/01/18 11:49:21;;;;;;;;;;;;;;;;;;6171639;23;20386;-96
2022/01/18 11:52:06;;;;;;;;;;;;;;;;;;6173129;23;19944;-95
2022/01/18 11:54:37;;;;;;;;;;;;;;;;;;6149069;23;19931;-94
2022/01/18 11:57:04;;;;;;;;;;;;;;;;;;6175332;23;19904;-96
2022/01/18 11:59:30;;;;;;;;;;;;;;;;;;6218745;23;19920;-96
2022/01/18 12:01:57;;;;;;;;;;;;;;;;;;6262259;23;20293;-96
2022/01/18 12:04:23;;;;;;;;;;;;;;;;;;6179988;23;20023;-93
2022/01/18 12:06:56;;;;;;;;;;;;;;;;;;6171454;23;19911;-96
2022/01/18 12:09:28;;;;;;;;;;;;;;;;;;6144486;23;20007;-96
2022/01/18 12:14:44;;;;;;;;;;;;;;;;;;6173506;23;20350;-96
2022/01/18 12:17:10;;;;;;;;;;;;;;;;;;6167690;23;19921;-94
2022/01/18 12:19:53;;;;;;;;;;;;;;;;;;6171172;23;19928;-96
2022/01/18 12:22:20;;;;;;;;;;;;;;;;;;6171833;23;19924;-95
2022/01/18 12:24:47;;;;;;;;;;;;;;;;;;6172241;23;19948;-96
2022/01/18 12:27:13;;;;;;;;;;;;;;;;;;6169708;23;19921;-96
2022/01/18 12:30:00;;;;;;;;;;;;;;;;;;6168139;23;20134;-95
2022/01/18 12:35:07;;;;;;;;;;;;;;;;;;6168712;23;19927;-91
2022/01/18 12:37:33;;;;;;;;;;;;;;;;;;6170536;23;19925;-95
2022/01/18 12:45:26;;;;;;;;;;;;;;;;;;6170520;23;19916;-93
2022/01/18 12:47:55;;;;;;;;;;;;;;;;;;6171773;23;19925;-96
2022/01/18 12:50:23;;;;;;;;;;;;;;;;;;6169179;23;19921;-96
2022/01/18 12:52:49;;;;;;;;;;;;;;;;;;6168299;23;19925;-93
2022/01/18 12:55:16;;;;;;;;;;;;;;;;;;6168508;23;19952;-96
2022/01/18 12:57:42;;;;;;;;;;;;;;;;;;6167995;23;19924;-96
2022/01/18 13:00:08;;;;;;;;;;;;;;;;;;6173178;23;20252;-94
2022/01/18 13:02:35;;;;;;;;;;;;;;;;;;6168238;23;19925;-96
2022/01/18 13:05:01;;;;;;;;;;;;;;;;;;6167006;23;19948;-94
2022/01/18 13:07:28;;;;;;;;;;;;;;;;;;6141083;23;19921;-92
2022/01/18 13:09:54;;;;;;;;;;;;;;;;;;6170683;23;19924;-93
2022/01/18 13:12:20;;;;;;;;;;;;;;;;;;6173129;23;19928;-92
2022/01/18 13:14:55;;;;;;;;;;;;;;;;;;6169827;23;19943;-96
2022/01/18 13:22:59;;;;;;;;;;;;;;;;;;6141365;23;19924;-96
2022/01/18 13:25:25;;;;;;;;;;;;;;;;;;6180361;23;19964;-93
2022/01/18 13:28:00;;;;;;;;;;;;;;;;;;6231819;23;19919;-96
2022/01/18 13:30:29;;;;;;;;;;;;;;;;;;6260463;23;19940;-93
2022/01/18 13:32:57;;;;;;;;;;;;;;;;;;6257556;23;19923;-95
2022/01/18 13:35:24;;;;;;;;;;;;;;;;;;6253288;23;19963;-92
2022/01/18 13:37:52;;;;;;;;;;;;;;;;;;6258885;23;19943;-94
2022/01/18 13:40:20;;;;;;;;;;;;;;;;;;6253349;23;19923;-92
2022/01/18 13:42:46;;;;;;;;;;;;;;;;;;6253176;23;19947;-92
2022/01/18 13:45:16;;;;;;;;;;;;;;;;;;6253253;23;19924;-96
2022/01/18 13:47:42;;;;;;;;;;;;;;;;;;6252746;23;19972;-91
2022/01/18 13:50:08;;;;;;;;;;;;;;;;;;6255260;23;19920;-96
2022/01/18 13:52:35;;;;;;;;;;;;;;;;;;6253330;23;19919;-95
2022/01/18 13:55:01;;;;;;;;;;;;;;;;;;6252556;23;19920;-95
2022/01/18 13:57:27;;;;;;;;;;;;;;;;;;6252783;23;19920;-95
2022/01/18 13:59:56;;;;;;;;;;;;;;;;;;6256199;23;19923;-96
2022/01/18 14:02:24;;;;;;;;;;;;;;;;;;6251505;23;19926;-95
2022/01/18 14:04:50;;;;;;;;;;;;;;;;;;6252232;23;19943;-94
2022/01/18 14:07:17;;;;;;;;;;;;;;;;;;6254937;23;19950;-95
2022/01/18 14:09:43;;;;;;;;;;;;;;;;;;6257828;23;19923;-95
2022/01/18 14:12:09;;;;;;;;;;;;;;;;;;6228005;23;20251;-96
2022/01/18 14:14:36;;;;;;;;;;;;;;;;;;6258447;23;19919;-92
2022/01/18 14:17:02;;;;;;;;;;;;;;;;;;6261643;23;19904;-90
2022/01/18 14:19:28;;;;;;;;;;;;;;;;;;6255888;23;19923;-94
2022/01/18 14:21:54;;;;;;;;;;;;;;;;;;6259052;23;19904;-91
2022/01/18 14:24:21;;;;;;;;;;;;;;;;;;6261079;23;19989;-92
2022/01/18 14:26:47;;;;;;;;;;;;;;;;;;6253545;23;19923;-93
2022/01/18 14:29:13;;;;;;;;;;;;;;;;;;6259646;23;19916;-96
2022/01/18 14:31:43;;;;;;;;;;;;;;;;;;6265713;23;19931;-96
2022/01/18 14:34:10;;;;;;;;;;;;;;;;;;6265540;23;19903;-96
2022/01/18 14:36:37;;;;;;;;;;;;;;;;;;6225325;22;19920;-94
2022/01/18 14:39:03;;;;;;;;;;;;;;;;;;6197403;23;19920;-92
2022/01/18 14:44:14;;;;;;;;;;;;;;;;;;6198354;23;19920;-96
2022/01/18 14:46:58;;;;;;;;;;;;;;;;;;6204565;23;19924;-96
2022/01/18 14:49:24;;;;;;;;;;;;;;;;;;6205868;23;19910;-96
2022/01/18 14:51:51;;;;;;;;;;;;;;;;;;6202335;23;20114;-95
2022/01/18 14:54:17;;;;;;;;;;;;;;;;;;6198809;23;19920;-91
2022/01/18 14:59:28;;;;;;;;;;;;;;;;;;6200836;23;19924;-93
2022/01/18 15:01:55;;;;;;;;;;;;;;;;;;6197417;23;19908;-92
2022/01/18 15:06:46;;;;;;;;;;;;;;;;;;6178458;23;19935;-95
2022/01/18 15:09:14;;;;;;;;;;;;;;;;;;6140272;23;19924;-93
2022/01/18 15:11:41;;;;;;;;;;;;;;;;;;6165915;23;19927;-92
2022/01/18 15:14:07;;;;;;;;;;;;;;;;;;6167783;23;19921;-94
2022/01/18 15:19:13;;;;;;;;;;;;;;;;;;6169865;23;19928;-95
2022/01/18 15:21:40;;;;;;;;;;;;;;;;;;6172645;23;19924;-94
2022/01/18 15:24:11;;;;;;;;;;;;;;;;;;6168954;23;19936;-96
2022/01/18 15:26:38;;;;;;;;;;;;;;;;;;6171080;23;19928;-94
2022/01/18 15:29:04;;;;;;;;;;;;;;;;;;6167563;23;19944;-96
2022/01/18 15:31:30;;;;;;;;;;;;;;;;;;6169850;23;19927;-95
2022/01/18 15:33:57;;;;;;;;;;;;;;;;;;6174440;23;19944;-96
2022/01/18 15:36:25;;;;;;;;;;;;;;;;;;6181016;23;19925;-96
2022/01/18 15:38:51;;;;;;;;;;;;;;;;;;6194974;23;19924;-92
2022/01/18 15:41:17;;;;;;;;;;;;;;;;;;6195325;23;20593;-92
2022/01/18 15:43:49;;;;;;;;;;;;;;;;;;6228615;23;19920;-96
2022/01/18 15:46:16;;;;;;;;;;;;;;;;;;6204175;23;19920;-92
2022/01/18 15:48:47;;;;;;;;;;;;;;;;;;6221962;23;19904;-96
2022/01/18 15:51:14;;;;;;;;;;;;;;;;;;6171401;23;19920;-93
2022/01/18 15:53:40;;;;;;;;;;;;;;;;;;6142620;23;19921;-96
2022/01/18 15:56:06;;;;;;;;;;;;;;;;;;6168907;23;19921;-94
2022/01/18 15:58:33;;;;;;;;;;;;;;;;;;6199369;23;19943;-96
2022/01/18 16:01:04;;;;;;;;;;;;;;;;;;6204319;23;19927;-96
2022/01/18 16:06:11;;;;;;;;;;;;;;;;;;6196930;23;19959;-96
2022/01/18 16:08:38;;;;;;;;;;;;;;;;;;6196819;23;19924;-91
2022/01/18 16:11:05;;;;;;;;;;;;;;;;;;6172263;23;19920;-95
2022/01/18 16:13:31;;;;;;;;;;;;;;;;;;6172280;23;20296;-92
2022/01/18 16:18:38;;;;;;;;;;;;;;;;;;6219095;23;19931;-96
2022/01/18 16:21:04;;;;;;;;;;;;;;;;;;6169807;23;19921;-96
2022/01/18 16:23:30;;;;;;;;;;;;;;;;;;6200809;23;19920;-94
2022/01/18 16:28:41;;;;;;;;;;;;;;;;;;6195796;23;19926;-92
2022/01/18 16:31:08;;;;;;;;;;;;;;;;;;6201071;23;19920;-94
2022/01/18 16:33:35;;;;;;;;;;;;;;;;;;6203145;23;19925;-96
2022/01/18 16:36:01;;;;;;;;;;;;;;;;;;6199457;23;19965;-93
2022/01/18 16:38:29;;;;;;;;;;;;;;;;;;6196931;23;19931;-96
2022/01/18 16:40:55;;;;;;;;;;;;;;;;;;6199864;23;19922;-95
2022/01/18 16:43:29;;;;;;;;;;;;;;;;;;6200447;23;19924;-94
2022/01/18 16:45:55;;;;;;;;;;;;;;;;;;6197102;23;19924;-90
2022/01/18 16:48:22;;;;;;;;;;;;;;;;;;6197404;23;19944;-94
2022/01/18 16:50:48;;;;;;;;;;;;;;;;;;6199703;23;19964;-91
2022/01/18 16:53:21;;;;;;;;;;;;;;;;;;6199474;23;19949;-96
2022/01/18 16:55:48;;;;;;;;;;;;;;;;;;6198619;23;19916;-96
2022/01/18 16:58:16;;;;;;;;;;;;;;;;;;6202123;23;19916;-96
2022/01/18 17:00:53;;;;;;;;;;;;;;;;;;6195659;23;19924;-96
2022/01/18 17:03:21;;;;;;;;;;;;;;;;;;6197226;23;19924;-95
2022/01/18 17:05:47;;;;;;;;;;;;;;;;;;6200742;23;19948;-92
2022/01/18 17:08:13;;;;;;;;;;;;;;;;;;6196631;23;19924;-92
2022/01/18 17:10:40;;;;;;;;;;;;;;;;;;6195626;23;19948;-91
2022/01/18 17:13:06;;;;;;;;;;;;;;;;;;6197706;23;19944;-94
2022/01/18 17:15:32;;;;;;;;;;;;;;;;;;6192402;23;19924;-94
2022/01/18 17:18:03;;;;;;;;;;;;;;;;;;6199018;23;19920;-96
2022/01/18 17:20:36;;;;;;;;;;;;;;;;;;6195499;23;19931;-95
2022/01/18 17:23:04;;;;;;;;;;;;;;;;;;6201634;23;19930;-96
2022/01/18 17:25:31;;;;;;;;;;;;;;;;;;6192712;23;19934;-96
2022/01/18 17:27:57;;;;;;;;;;;;;;;;;;6195952;23;19920;-93
2022/01/18 17:30:25;;;;;;;;;;;;;;;;;;6198227;23;20011;-95
2022/01/18 17:32:55;;;;;;;;;;;;;;;;;;6191958;23;19923;-93
2022/01/18 17:35:24;;;;;;;;;;;;;;;;;;6165416;23;19924;-95
2022/01/18 17:37:51;;;;;;;;;;;;;;;;;;6165761;23;19954;-95
2022/01/18 17:40:17;;;;;;;;;;;;;;;;;;6165201;23;19932;-91
2022/01/18 17:42:44;;;;;;;;;;;;;;;;;;6169746;23;19929;-91
2022/01/18 17:45:10;;;;;;;;;;;;;;;;;;6168390;23;19952;-92
2022/01/18 17:47:36;;;;;;;;;;;;;;;;;;6167074;23;19945;-90
2022/01/18 17:50:05;;;;;;;;;;;;;;;;;;6168357;23;19925;-96
2022/01/18 17:52:31;;;;;;;;;;;;;;;;;;6164109;23;19935;-92
2022/01/18 17:54:58;;;;;;;;;;;;;;;;;;6165471;23;19925;-96
2022/01/18 17:57:27;;;;;;;;;;;;;;;;;;6137881;23;20544;-93
2022/01/18 17:59:54;;;;;;;;;;;;;;;;;;6164353;23;19925;-93
2022/01/18 18:02:20;;;;;;;;;;;;;;;;;;6162493;23;19948;-94
2022/01/18 18:04:46;;;;;;;;;;;;;;;;;;6137958;23;19924;-92
2022/01/18 18:07:12;;;;;;;;;;;;;;;;;;6163462;23;19921;-95
2022/01/18 18:09:44;;;;;;;;;;;;;;;;;;6161050;23;19924;-95
2022/01/18 18:12:10;;;;;;;;;;;;;;;;;;6164280;23;19928;-90
2022/01/18 18:14:37;;;;;;;;;;;;;;;;;;6165256;23;19969;-96
2022/01/18 18:17:04;;;;;;;;;;;;;;;;;;6163621;23;19920;-94
2022/01/18 18:19:30;;;;;;;;;;;;;;;;;;6163841;23;20414;-91
2022/01/18 18:21:56;;;;;;;;;;;;;;;;;;6165161;23;20478;-92
2022/01/18 18:24:23;;;;;;;;;;;;;;;;;;6166021;23;19986;-92
2022/01/18 18:26:49;;;;;;;;;;;;;;;;;;6166372;23;19920;-92
2022/01/18 18:29:15;;;;;;;;;;;;;;;;;;6166456;23;19944;-91
2022/01/18 18:31:43;;;;;;;;;;;;;;;;;;6168997;23;19924;-94
2022/01/18 18:34:09;;;;;;;;;;;;;;;;;;6187246;23;19925;-93
2022/01/18 18:36:36;;;;;;;;;;;;;;;;;;6200422;23;19924;-95
2022/01/18 18:39:11;;;;;;;;;;;;;;;;;;6201206;23;19920;-93
2022/01/18 18:41:51;;;;;;;;;;;;;;;;;;6169043;23;19931;-92
2022/01/18 18:44:31;;;;;;;;;;;;;;;;;;6194145;23;19999;-94
2022/01/18 18:46:57;;;;;;;;;;;;;;;;;;6196431;23;19931;-95
2022/01/18 18:49:25;;;;;;;;;;;;;;;;;;6196276;23;19928;-94
2022/01/18 18:51:52;;;;;;;;;;;;;;;;;;6197982;23;19921;-92
2022/01/18 18:54:18;;;;;;;;;;;;;;;;;;6196289;23;19921;-93
2022/01/18 18:56:44;;;;;;;;;;;;;;;;;;6198498;23;19944;-93
2022/01/18 18:59:42;;;;;;;;;;;;;;;;;;6196086;23;19952;-93
2022/01/18 19:02:18;;;;;;;;;;;;;;;;;;6202110;23;19968;-94
2022/01/18 19:04:45;;;;;;;;;;;;;;;;;;6195914;23;19920;-95
2022/01/18 19:07:11;;;;;;;;;;;;;;;;;;6200562;23;19920;-95
2022/01/18 19:09:38;;;;;;;;;;;;;;;;;;6198482;23;19920;-95
2022/01/18 19:12:06;;;;;;;;;;;;;;;;;;6201988;23;19924;-96
2022/01/18 19:14:44;;;;;;;;;;;;;;;;;;6199424;23;20409;-96
2022/01/18 19:17:12;;;;;;;;;;;;;;;;;;6176857;23;19931;-94
2022/01/18 19:19:38;;;;;;;;;;;;;;;;;;6202170;23;19921;-91
2022/01/18 19:22:04;;;;;;;;;;;;;;;;;;6200695;23;19980;-93
2022/01/18 19:24:30;;;;;;;;;;;;;;;;;;6194345;23;19920;-95
2022/01/18 19:26:57;;;;;;;;;;;;;;;;;;6195775;23;19945;-93
2022/01/18 19:29:23;;;;;;;;;;;;;;;;;;6202314;23;19925;-94
2022/01/18 19:31:49;;;;;;;;;;;;;;;;;;6198683;23;20335;-94
2022/01/18 19:37:01;;;;;;;;;;;;;;;;;;6194207;23;19980;-92
2022/01/18 19:39:27;;;;;;;;;;;;;;;;;;6194532;23;19972;-94
2022/01/18 19:41:53;;;;;;;;;;;;;;;;;;6194140;23;19924;-95
2022/01/18 19:44:20;;;;;;;;;;;;;;;;;;6198727;23;19976;-92
2022/01/18 19:46:50;;;;;;;;;;;;;;;;;;6196860;23;19920;-96
2022/01/18 19:49:20;;;;;;;;;;;;;;;;;;6199016;23;19921;-96
2022/01/18 19:51:48;;;;;;;;;;;;;;;;;;6196584;23;19920;-90
2022/01/18 19:54:14;;;;;;;;;;;;;;;;;;6202699;23;19928;-94
2022/01/18 19:56:42;;;;;;;;;;;;;;;;;;6198997;23;19956;-96
2022/01/18 19:59:08;;;;;;;;;;;;;;;;;;6203818;23;19920;-95
2022/01/18 20:01:35;;;;;;;;;;;;;;;;;;6201720;23;20406;-96
2022/01/18 20:04:04;;;;;;;;;;;;;;;;;;6204526;23;19911;-94
2022/01/18 20:06:30;;;;;;;;;;;;;;;;;;6206074;23;20365;-96
2022/01/18 20:09:12;;;;;;;;;;;;;;;;;;6205329;23;19924;-94
2022/01/18 20:11:39;;;;;;;;;;;;;;;;;;6203257;23;19947;-96
2022/01/18 20:14:05;;;;;;;;;;;;;;;;;;6203216;23;19924;-96
2022/01/18 20:16:32;;;;;;;;;;;;;;;;;;6174215;23;19920;-95